sensor_id;sensor_type;location;lat;lon;timestamp;pressure;altitude;pressure_sealevel;temperature;humidity
54854;BME280;40747;49.480;8.658;2022-11-11T00:01:29;101800.16;;;8.67;100.00
54854;BME280;40747;49.480;8.658;2022-11-11T00:03:54;101796.66;;;8.49;100.00
54854;BME280;40747;49.480;8.658;2022-11-11T00:06:22;101795.75;;;8.43;100.00
54854;BME280;40747;49.480;8.658;2022-11-11T00:08:48;101786.94;;;8.37;100.00
54854;BME280;40747;49.480;8.658;2022-11-11T00:11:14;101794.88;;;8.50;100.00
54854;BME280;40747;49.480;8.658;2022-11-11T00:13:41;101785.28;;;8.52;100.00
54854;BME280;40747;49.480;8.658;2022-11-11T00:16:12;101797.53;;;8.56;100.00
54854;BME280;40747;49.480;8.658;2022-11-11T00:18:38;101785.25;;;8.57;100.00
54854;BME280;40747;49.480;8.658;2022-11-11T00:21:23;101793.16;;;8.53;100.00
54854;BME280;40747;49.480;8.658;2022-11-11T00:23:51;101790.50;;;8.46;100.00
54854;BME280;40747;49.480;8.658;2022-11-11T00:26:35;101788.72;;;8.37;100.00
54854;BME280;40747;49.480;8.658;2022-11-11T00:29:00;101774.69;;;8.23;100.00
54854;BME280;40747;49.480;8.658;2022-11-11T00:31:25;101779.88;;;7.99;100.00
54854;BME280;40747;49.480;8.658;2022-11-11T00:33:52;101786.88;;;8.05;100.00
54854;BME280;40747;49.480;8.658;2022-11-11T00:36:17;101796.47;;;7.97;100.00
54854;BME280;40747;49.480;8.658;2022-11-11T00:38:43;101807.78;;;7.82;100.00
54854;BME280;40747;49.480;8.658;2022-11-11T00:41:16;101807.78;;;7.79;100.00
54854;BME280;40747;49.480;8.658;2022-11-11T00:43:43;101813.81;;;7.68;100.00
54854;BME280;40747;49.480;8.658;2022-11-11T00:46:08;101818.22;;;7.73;100.00
54854;BME280;40747;49.480;8.658;2022-11-11T00:48:52;101811.25;;;7.81;100.00
54854;BME280;40747;49.480;8.658;2022-11-11T00:51:36;101809.53;;;7.87;100.00
54854;BME280;40747;49.480;8.658;2022-11-11T00:54:02;101821.81;;;7.93;100.00
54854;BME280;40747;49.480;8.658;2022-11-11T00:56:27;101824.44;;;7.98;100.00
54854;BME280;40747;49.480;8.658;2022-11-11T00:58:53;101834.06;;;7.96;100.00
54854;BME280;40747;49.480;8.658;2022-11-11T01:01:18;101833.94;;;7.69;100.00
54854;BME280;40747;49.480;8.658;2022-11-11T01:03:43;101845.13;;;7.41;100.00
54854;BME280;40747;49.480;8.658;2022-11-11T01:06:11;101845.09;;;7.36;100.00
54854;BME280;40747;49.480;8.658;2022-11-11T01:08:37;101844.19;;;7.29;100.00
54854;BME280;40747;49.480;8.658;2022-11-11T01:11:03;101842.47;;;7.37;100.00
54854;BME280;40747;49.480;8.658;2022-11-11T01:13:30;101843.44;;;7.49;100.00
54854;BME280;40747;49.480;8.658;2022-11-11T01:16:08;101841.75;;;7.60;100.00
54854;BME280;40747;49.480;8.658;2022-11-11T01:18:33;101835.66;;;7.61;100.00
54854;BME280;40747;49.480;8.658;2022-11-11T01:21:01;101831.28;;;7.63;100.00
54854;BME280;40747;49.480;8.658;2022-11-11T01:23:27;101826.94;;;7.68;100.00
54854;BME280;40747;49.480;8.658;2022-11-11T01:25:52;101833.06;;;7.70;100.00
54854;BME280;40747;49.480;8.658;2022-11-11T01:28:18;101829.56;;;7.68;100.00
54854;BME280;40747;49.480;8.658;2022-11-11T01:30:43;101811.16;;;7.56;100.00
54854;BME280;40747;49.480;8.658;2022-11-11T01:33:09;101825.13;;;7.58;100.00
54854;BME280;40747;49.480;8.658;2022-11-11T01:35:39;101826.03;;;7.57;100.00
54854;BME280;40747;49.480;8.658;2022-11-11T01:38:05;101814.59;;;7.46;100.00
54854;BME280;40747;49.480;8.658;2022-11-11T01:40:39;101819.88;;;7.55;100.00
54854;BME280;40747;49.480;8.658;2022-11-11T01:45:54;101837.38;;;7.56;100.00
54854;BME280;40747;49.480;8.658;2022-11-11T01:48:28;101833.88;;;7.57;100.00
54854;BME280;40747;49.480;8.658;2022-11-11T01:51:35;101839.78;;;7.25;100.00
54854;BME280;40747;49.480;8.658;2022-11-11T01:54:06;101843.09;;;7.05;100.00
54854;BME280;40747;49.480;8.658;2022-11-11T01:56:33;101833.47;;;7.03;100.00
54854;BME280;40747;49.480;8.658;2022-11-11T01:59:01;101827.53;;;7.24;100.00
54854;BME280;40747;49.480;8.658;2022-11-11T02:01:27;101821.28;;;7.07;100.00
54854;BME280;40747;49.480;8.658;2022-11-11T02:03:53;101827.47;;;7.15;100.00
54854;BME280;40747;49.480;8.658;2022-11-11T02:06:39;101828.41;;;7.26;100.00
54854;BME280;40747;49.480;8.658;2022-11-11T02:09:06;101818.88;;;7.36;100.00
54854;BME280;40747;49.480;8.658;2022-11-11T02:11:33;101820.66;;;7.38;100.00
54854;BME280;40747;49.480;8.658;2022-11-11T02:14:19;101824.13;;;7.37;100.00
54854;BME280;40747;49.480;8.658;2022-11-11T02:17:01;101817.97;;;7.29;100.00
54854;BME280;40747;49.480;8.658;2022-11-11T02:22:06;101831.03;;;7.23;100.00
54854;BME280;40747;49.480;8.658;2022-11-11T02:24:33;101828.41;;;7.23;100.00
54854;BME280;40747;49.480;8.658;2022-11-11T02:26:59;101831.06;;;7.28;100.00
54854;BME280;40747;49.480;8.658;2022-11-11T02:29:26;101835.28;;;7.12;100.00
54854;BME280;40747;49.480;8.658;2022-11-11T02:31:52;101828.28;;;7.08;100.00
54854;BME280;40747;49.480;8.658;2022-11-11T02:34:18;101823.91;;;7.07;100.00
54854;BME280;40747;49.480;8.658;2022-11-11T02:36:43;101784.50;;;6.94;100.00
54854;BME280;40747;49.480;8.658;2022-11-11T02:39:09;101814.34;;;7.12;100.00
54854;BME280;40747;49.480;8.658;2022-11-11T02:41:35;101809.94;;;7.06;100.00
54854;BME280;40747;49.480;8.658;2022-11-11T02:44:18;101816.91;;;7.02;100.00
54854;BME280;40747;49.480;8.658;2022-11-11T02:46:44;101809.84;;;6.97;100.00
54854;BME280;40747;49.480;8.658;2022-11-11T02:49:09;101830.84;;;6.98;100.00
54854;BME280;40747;49.480;8.658;2022-11-11T02:51:34;101830.78;;;6.94;100.00
54854;BME280;40747;49.480;8.658;2022-11-11T02:53:59;101831.59;;;6.86;100.00
54854;BME280;40747;49.480;8.658;2022-11-11T02:56:25;101829.84;;;6.85;100.00
54854;BME280;40747;49.480;8.658;2022-11-11T02:59:08;101838.56;;;6.84;100.00
54854;BME280;40747;49.480;8.658;2022-11-11T03:01:34;101839.44;;;6.86;100.00
54854;BME280;40747;49.480;8.658;2022-11-11T03:03:59;101838.66;;;6.94;100.00
54854;BME280;40747;49.480;8.658;2022-11-11T03:06:24;101850.03;;;6.99;100.00
54854;BME280;40747;49.480;8.658;2022-11-11T03:08:49;101845.59;;;6.92;100.00
54854;BME280;40747;49.480;8.658;2022-11-11T03:11:15;101845.66;;;6.96;100.00
54854;BME280;40747;49.480;8.658;2022-11-11T03:13:52;101847.03;;;6.57;100.00
54854;BME280;40747;49.480;8.658;2022-11-11T03:16:17;101850.44;;;6.50;100.00
54854;BME280;40747;49.480;8.658;2022-11-11T03:19:01;101845.09;;;6.39;100.00
54854;BME280;40747;49.480;8.658;2022-11-11T03:21:26;101844.06;;;6.28;100.00
54854;BME280;40747;49.480;8.658;2022-11-11T03:23:51;101850.22;;;6.31;100.00
54854;BME280;40747;49.480;8.658;2022-11-11T03:26:17;101849.47;;;6.42;100.00
54854;BME280;40747;49.480;8.658;2022-11-11T03:28:43;101864.34;;;6.44;100.00
54854;BME280;40747;49.480;8.658;2022-11-11T03:31:08;101863.50;;;6.48;100.00
54854;BME280;40747;49.480;8.658;2022-11-11T03:33:34;101870.50;;;6.49;100.00
54854;BME280;40747;49.480;8.658;2022-11-11T03:35:59;101875.63;;;6.37;100.00
54854;BME280;40747;49.480;8.658;2022-11-11T03:38:24;101886.78;;;6.25;100.00
54854;BME280;40747;49.480;8.658;2022-11-11T03:40:55;101889.38;;;6.22;100.00
54854;BME280;40747;49.480;8.658;2022-11-11T03:43:22;101884.16;;;6.23;100.00
54854;BME280;40747;49.480;8.658;2022-11-11T03:45:48;101887.78;;;6.32;100.00
54854;BME280;40747;49.480;8.658;2022-11-11T03:48:14;101896.31;;;6.20;100.00
54854;BME280;40747;49.480;8.658;2022-11-11T03:50:40;101900.53;;;6.07;100.00
54854;BME280;40747;49.480;8.658;2022-11-11T03:53:06;101891.59;;;5.96;100.00
54854;BME280;40747;49.480;8.658;2022-11-11T03:55:31;101903.13;;;6.07;100.00
54854;BME280;40747;49.480;8.658;2022-11-11T03:57:57;101891.84;;;6.10;100.00
54854;BME280;40747;49.480;8.658;2022-11-11T04:00:24;101900.50;;;6.04;100.00
54854;BME280;40747;49.480;8.658;2022-11-11T04:02:50;101893.47;;;6.01;100.00
54854;BME280;40747;49.480;8.658;2022-11-11T04:05:34;101895.19;;;5.99;100.00
54854;BME280;40747;49.480;8.658;2022-11-11T04:08:19;101897.88;;;6.05;100.00
54854;BME280;40747;49.480;8.658;2022-11-11T04:11:13;101894.53;;;6.16;100.00
54854;BME280;40747;49.480;8.658;2022-11-11T04:13:45;101903.59;;;5.80;100.00
54854;BME280;40747;49.480;8.658;2022-11-11T04:16:46;101900.56;;;5.50;100.00
54854;BME280;40747;49.480;8.658;2022-11-11T04:19:11;101907.44;;;5.45;100.00
54854;BME280;40747;49.480;8.658;2022-11-11T04:21:59;101912.41;;;5.28;100.00
54854;BME280;40747;49.480;8.658;2022-11-11T04:24:24;101927.97;;;5.22;100.00
54854;BME280;40747;49.480;8.658;2022-11-11T04:27:11;101932.25;;;5.17;100.00
54854;BME280;40747;49.480;8.658;2022-11-11T04:29:37;101928.97;;;5.30;100.00
54854;BME280;40747;49.480;8.658;2022-11-11T04:32:07;101923.81;;;5.33;100.00
54854;BME280;40747;49.480;8.658;2022-11-11T04:34:57;101921.38;;;5.46;100.00
54854;BME280;40747;49.480;8.658;2022-11-11T04:37:24;101921.56;;;5.56;100.00
54854;BME280;40747;49.480;8.658;2022-11-11T04:39:49;101921.63;;;5.61;100.00
54854;BME280;40747;49.480;8.658;2022-11-11T04:42:33;101924.13;;;5.55;100.00
54854;BME280;40747;49.480;8.658;2022-11-11T04:44:59;101923.97;;;5.44;100.00
54854;BME280;40747;49.480;8.658;2022-11-11T04:50:32;101937.22;;;5.04;100.00
54854;BME280;40747;49.480;8.658;2022-11-11T04:52:58;101936.56;;;5.16;100.00
54854;BME280;40747;49.480;8.658;2022-11-11T04:55:24;101932.47;;;5.31;100.00
54854;BME280;40747;49.480;8.658;2022-11-11T04:58:08;101941.22;;;5.34;100.00
54854;BME280;40747;49.480;8.658;2022-11-11T05:00:34;101938.69;;;5.39;100.00
54854;BME280;40747;49.480;8.658;2022-11-11T05:02:59;101936.19;;;5.45;100.00
54854;BME280;40747;49.480;8.658;2022-11-11T05:05:44;101929.31;;;5.50;100.00
54854;BME280;40747;49.480;8.658;2022-11-11T05:08:28;101931.03;;;5.50;100.00
54854;BME280;40747;49.480;8.658;2022-11-11T05:11:12;101927.66;;;5.57;100.00
54854;BME280;40747;49.480;8.658;2022-11-11T05:13:38;101922.50;;;5.60;100.00
54854;BME280;40747;49.480;8.658;2022-11-11T05:16:22;101924.97;;;5.52;100.00
54854;BME280;40747;49.480;8.658;2022-11-11T05:19:10;101921.41;;;5.47;100.00
54854;BME280;40747;49.480;8.658;2022-11-11T05:21:56;101920.50;;;5.44;100.00
54854;BME280;40747;49.480;8.658;2022-11-11T05:24:23;101919.50;;;5.37;100.00
54854;BME280;40747;49.480;8.658;2022-11-11T05:27:07;101922.28;;;5.48;100.00
54854;BME280;40747;49.480;8.658;2022-11-11T05:29:32;101919.59;;;5.43;100.00
54854;BME280;40747;49.480;8.658;2022-11-11T05:31:58;101921.16;;;5.32;100.00
54854;BME280;40747;49.480;8.658;2022-11-11T05:34:23;101932.38;;;5.26;100.00
54854;BME280;40747;49.480;8.658;2022-11-11T05:36:48;101928.97;;;5.30;100.00
54854;BME280;40747;49.480;8.658;2022-11-11T05:39:14;101924.56;;;5.28;100.00
54854;BME280;40747;49.480;8.658;2022-11-11T05:41:39;101925.50;;;5.30;100.00
54854;BME280;40747;49.480;8.658;2022-11-11T05:44:04;101934.25;;;5.33;100.00
54854;BME280;40747;49.480;8.658;2022-11-11T05:46:29;101940.44;;;5.38;100.00
54854;BME280;40747;49.480;8.658;2022-11-11T05:48:55;101946.63;;;5.44;100.00
54854;BME280;40747;49.480;8.658;2022-11-11T05:51:38;101951.16;;;5.54;100.00
54854;BME280;40747;49.480;8.658;2022-11-11T05:54:04;101954.00;;;5.69;100.00
54854;BME280;40747;49.480;8.658;2022-11-11T05:56:29;101950.59;;;5.77;100.00
54854;BME280;40747;49.480;8.658;2022-11-11T05:58:54;101956.81;;;5.28;100.00
54854;BME280;40747;49.480;8.658;2022-11-11T06:01:19;101966.91;;;4.21;100.00
54854;BME280;40747;49.480;8.658;2022-11-11T06:03:45;101971.13;;;3.77;100.00
54854;BME280;40747;49.480;8.658;2022-11-11T06:06:11;101972.44;;;3.60;100.00
54854;BME280;40747;49.480;8.658;2022-11-11T06:08:36;101960.19;;;3.56;100.00
54854;BME280;40747;49.480;8.658;2022-11-11T06:11:01;101972.44;;;3.60;100.00
54854;BME280;40747;49.480;8.658;2022-11-11T06:13:27;101970.50;;;3.53;100.00
54854;BME280;40747;49.480;8.658;2022-11-11T06:15:55;101973.22;;;3.56;100.00
54854;BME280;40747;49.480;8.658;2022-11-11T06:18:20;101968.84;;;3.55;100.00
54854;BME280;40747;49.480;8.658;2022-11-11T06:20:45;101976.88;;;3.64;100.00
54854;BME280;40747;49.480;8.658;2022-11-11T06:23:10;101981.41;;;3.71;100.00
54854;BME280;40747;49.480;8.658;2022-11-11T06:25:36;101992.88;;;3.80;100.00
54854;BME280;40747;49.480;8.658;2022-11-11T06:28:20;101991.00;;;4.10;100.00
54854;BME280;40747;49.480;8.658;2022-11-11T06:30:45;101999.44;;;4.38;100.00
54854;BME280;40747;49.480;8.658;2022-11-11T06:33:10;102002.13;;;4.41;100.00
54854;BME280;40747;49.480;8.658;2022-11-11T06:35:37;102000.72;;;4.57;100.00
54854;BME280;40747;49.480;8.658;2022-11-11T06:38:03;102001.19;;;4.81;100.00
54854;BME280;40747;49.480;8.658;2022-11-11T06:40:29;102003.53;;;5.13;100.00
54854;BME280;40747;49.480;8.658;2022-11-11T06:42:56;102005.53;;;5.24;100.00
54854;BME280;40747;49.480;8.658;2022-11-11T06:45:22;102002.34;;;5.43;100.00
54854;BME280;40747;49.480;8.658;2022-11-11T06:47:47;102011.31;;;5.57;100.00
54854;BME280;40747;49.480;8.658;2022-11-11T06:50:13;101999.09;;;5.56;100.00
54854;BME280;40747;49.480;8.658;2022-11-11T06:52:38;102007.84;;;5.58;100.00
54854;BME280;40747;49.480;8.658;2022-11-11T06:55:04;102012.28;;;5.64;100.00
54854;BME280;40747;49.480;8.658;2022-11-11T06:57:29;102014.13;;;5.69;100.00
54854;BME280;40747;49.480;8.658;2022-11-11T06:59:55;102022.28;;;5.88;100.00
54854;BME280;40747;49.480;8.658;2022-11-11T07:02:20;102021.53;;;5.95;100.00
54854;BME280;40747;49.480;8.658;2022-11-11T07:04:45;102029.22;;;5.86;100.00
54854;BME280;40747;49.480;8.658;2022-11-11T07:07:10;102035.31;;;5.86;100.00
54854;BME280;40747;49.480;8.658;2022-11-11T07:09:36;102039.13;;;6.04;100.00
54854;BME280;40747;49.480;8.658;2022-11-11T07:12:01;102038.25;;;6.03;100.00
54854;BME280;40747;49.480;8.658;2022-11-11T07:14:26;102040.13;;;6.14;100.00
54854;BME280;40747;49.480;8.658;2022-11-11T07:16:52;102043.81;;;6.25;100.00
54854;BME280;40747;49.480;8.658;2022-11-11T07:19:17;102034.97;;;6.17;100.00
54854;BME280;40747;49.480;8.658;2022-11-11T07:21:42;102035.72;;;6.10;100.00
54854;BME280;40747;49.480;8.658;2022-11-11T07:24:08;102038.41;;;6.13;100.00
54854;BME280;40747;49.480;8.658;2022-11-11T07:26:33;102046.13;;;6.05;100.00
54854;BME280;40747;49.480;8.658;2022-11-11T07:28:58;102040.56;;;5.88;100.00
54854;BME280;40747;49.480;8.658;2022-11-11T07:31:23;102049.47;;;5.98;100.00
54854;BME280;40747;49.480;8.658;2022-11-11T07:33:49;102058.25;;;6.00;100.00
54854;BME280;40747;49.480;8.658;2022-11-11T07:36:14;102058.53;;;6.18;100.00
54854;BME280;40747;49.480;8.658;2022-11-11T07:38:39;102058.53;;;6.17;100.00
54854;BME280;40747;49.480;8.658;2022-11-11T07:41:04;102057.72;;;6.22;100.00
54854;BME280;40747;49.480;8.658;2022-11-11T07:43:30;102061.97;;;6.14;100.00
54854;BME280;40747;49.480;8.658;2022-11-11T07:45:55;102064.50;;;6.10;100.00
54854;BME280;40747;49.480;8.658;2022-11-11T07:48:20;102058.22;;;5.98;100.00
54854;BME280;40747;49.480;8.658;2022-11-11T07:50:46;102057.56;;;6.12;100.00
54854;BME280;40747;49.480;8.658;2022-11-11T07:53:11;102067.31;;;6.20;100.00
54854;BME280;40747;49.480;8.658;2022-11-11T07:55:36;102061.16;;;6.20;100.00
54854;BME280;40747;49.480;8.658;2022-11-11T07:58:01;102068.34;;;6.32;100.00
54854;BME280;40747;49.480;8.658;2022-11-11T08:00:27;102058.88;;;6.43;100.00
54854;BME280;40747;49.480;8.658;2022-11-11T08:02:52;102054.56;;;6.44;100.00
54854;BME280;40747;49.480;8.658;2022-11-11T08:05:17;102056.44;;;6.55;100.00
54854;BME280;40747;49.480;8.658;2022-11-11T08:07:43;102058.31;;;6.64;100.00
54854;BME280;40747;49.480;8.658;2022-11-11T08:10:09;102054.00;;;6.66;100.00
54854;BME280;40747;49.480;8.658;2022-11-11T08:12:35;102054.06;;;6.72;100.00
54854;BME280;40747;49.480;8.658;2022-11-11T08:15:19;102054.28;;;6.88;100.00
54854;BME280;40747;49.480;8.658;2022-11-11T08:17:44;102059.53;;;6.89;100.00
54854;BME280;40747;49.480;8.658;2022-11-11T08:20:09;102049.16;;;6.97;100.00
54854;BME280;40747;49.480;8.658;2022-11-11T08:22:39;102054.47;;;7.03;100.00
54854;BME280;40747;49.480;8.658;2022-11-11T08:25:07;102046.63;;;7.07;100.00
54854;BME280;40747;49.480;8.658;2022-11-11T08:27:33;102045.91;;;7.20;100.00
54854;BME280;40747;49.480;8.658;2022-11-11T08:29:59;102039.84;;;7.26;100.00
54854;BME280;40747;49.480;8.658;2022-11-11T08:32:24;102033.53;;;7.10;100.00
54854;BME280;40747;49.480;8.658;2022-11-11T08:34:50;102037.97;;;7.14;100.00
54854;BME280;40747;49.480;8.658;2022-11-11T08:37:15;102039.06;;;7.33;100.00
54854;BME280;40747;49.480;8.658;2022-11-11T08:39:40;102040.78;;;7.31;100.00
54854;BME280;40747;49.480;8.658;2022-11-11T08:42:05;102039.09;;;7.37;100.00
54854;BME280;40747;49.480;8.658;2022-11-11T08:44:31;101995.28;;;7.22;100.00
54854;BME280;40747;49.480;8.658;2022-11-11T08:46:56;102048.06;;;7.61;100.00
54854;BME280;40747;49.480;8.658;2022-11-11T08:49:22;102042.03;;;7.71;100.00
54854;BME280;40747;49.480;8.658;2022-11-11T08:51:47;102045.66;;;7.84;100.00
54854;BME280;40747;49.480;8.658;2022-11-11T08:54:13;102048.34;;;7.94;100.00
54854;BME280;40747;49.480;8.658;2022-11-11T08:56:38;102051.13;;;8.11;100.00
54854;BME280;40747;49.480;8.658;2022-11-11T08:59:04;102052.91;;;8.18;100.00
54854;BME280;40747;49.480;8.658;2022-11-11T09:01:30;102044.16;;;8.20;100.00
54854;BME280;40747;49.480;8.658;2022-11-11T09:03:55;102050.34;;;8.29;100.00
54854;BME280;40747;49.480;8.658;2022-11-11T09:06:20;102055.63;;;8.32;100.00
54854;BME280;40747;49.480;8.658;2022-11-11T09:08:46;102051.31;;;8.42;100.00
54854;BME280;40747;49.480;8.658;2022-11-11T09:11:11;102056.47;;;8.29;100.00
54854;BME280;40747;49.480;8.658;2022-11-11T09:13:37;102060.13;;;8.48;100.00
54854;BME280;40747;49.480;8.658;2022-11-11T09:16:02;102062.84;;;8.61;100.00
54854;BME280;40747;49.480;8.658;2022-11-11T09:18:27;102066.28;;;8.57;100.00
54854;BME280;40747;49.480;8.658;2022-11-11T09:20:57;102065.50;;;8.70;100.00
54854;BME280;40747;49.480;8.658;2022-11-11T09:23:24;102063.75;;;8.67;100.00
54854;BME280;40747;49.480;8.658;2022-11-11T09:25:49;102068.09;;;8.61;100.00
54854;BME280;40747;49.480;8.658;2022-11-11T09:28:14;102069.91;;;8.71;100.00
54854;BME280;40747;49.480;8.658;2022-11-11T09:30:39;102070.75;;;8.68;100.00
54854;BME280;40747;49.480;8.658;2022-11-11T09:33:05;102074.31;;;8.81;100.00
54854;BME280;40747;49.480;8.658;2022-11-11T09:35:30;102071.78;;;9.01;100.00
54854;BME280;40747;49.480;8.658;2022-11-11T09:37:58;102074.38;;;8.95;100.00
54854;BME280;40747;49.480;8.658;2022-11-11T09:40:26;102082.25;;;8.94;100.00
54854;BME280;40747;49.480;8.658;2022-11-11T09:48:44;102083.94;;;8.79;100.00
54854;BME280;40747;49.480;8.658;2022-11-11T09:51:18;102077.88;;;8.97;100.00
54854;BME280;40747;49.480;8.658;2022-11-11T09:54:07;102085.84;;;9.17;100.00
54854;BME280;40747;49.480;8.658;2022-11-11T09:56:37;102081.44;;;9.10;100.00
54854;BME280;40747;49.480;8.658;2022-11-11T09:59:18;102075.94;;;8.59;100.00
54854;BME280;40747;49.480;8.658;2022-11-11T10:01:50;102068.06;;;7.50;100.00
54854;BME280;40747;49.480;8.658;2022-11-11T10:04:28;102074.78;;;7.26;100.00
54854;BME280;40747;49.480;8.658;2022-11-11T10:07:06;102076.06;;;7.64;100.00
54854;BME280;40747;49.480;8.658;2022-11-11T10:09:52;102078.88;;;7.84;100.00
54854;BME280;40747;49.480;8.658;2022-11-11T10:12:20;102070.97;;;7.81;100.00
54854;BME280;40747;49.480;8.658;2022-11-11T10:14:46;102064.75;;;7.69;100.00
54854;BME280;40747;49.480;8.658;2022-11-11T10:17:37;102054.25;;;7.66;100.00
54854;BME280;40747;49.480;8.658;2022-11-11T10:20:13;102055.97;;;7.66;100.00
54854;BME280;40747;49.480;8.658;2022-11-11T10:22:42;102050.16;;;8.02;100.00
54854;BME280;40747;49.480;8.658;2022-11-11T10:27:39;102043.03;;;7.86;100.00
54854;BME280;40747;49.480;8.658;2022-11-11T10:30:31;102044.78;;;7.87;100.00
54854;BME280;40747;49.480;8.658;2022-11-11T10:35:31;102043.06;;;7.91;100.00
54854;BME280;40747;49.480;8.658;2022-11-11T10:40:53;102038.16;;;8.39;100.00
54854;BME280;40747;49.480;8.658;2022-11-11T10:43:24;102028.63;;;8.47;100.00
54854;BME280;40747;49.480;8.658;2022-11-11T10:46:17;102035.56;;;8.42;100.00
54854;BME280;40747;49.480;8.658;2022-11-11T10:51:16;102011.09;;;8.46;100.00
54854;BME280;40747;49.480;8.658;2022-11-11T10:59:01;102000.75;;;8.86;100.00
54854;BME280;40747;49.480;8.658;2022-11-11T11:01:35;102001.63;;;8.83;100.00
54854;BME280;40747;49.480;8.658;2022-11-11T11:04:07;102006.03;;;8.91;100.00
54854;BME280;40747;49.480;8.658;2022-11-11T11:06:38;102001.66;;;8.93;100.00
54854;BME280;40747;49.480;8.658;2022-11-11T11:09:23;102006.06;;;9.05;100.00
54854;BME280;40747;49.480;8.658;2022-11-11T11:12:17;101992.94;;;9.14;100.00
54854;BME280;40747;49.480;8.658;2022-11-11T11:14:47;101997.31;;;9.06;100.00
54854;BME280;40747;49.480;8.658;2022-11-11T11:17:44;101998.13;;;8.80;100.00
54854;BME280;40747;49.480;8.658;2022-11-11T11:20:16;101992.00;;;8.87;100.00
54854;BME280;40747;49.480;8.658;2022-11-11T11:22:50;101996.31;;;8.69;100.00
54854;BME280;40747;49.480;8.658;2022-11-11T11:25:16;101997.19;;;8.72;100.00
54854;BME280;40747;49.480;8.658;2022-11-11T11:27:43;102011.22;;;8.75;100.00
54854;BME280;40747;49.480;8.658;2022-11-11T11:32:41;102013.88;;;8.86;100.00
54854;BME280;40747;49.480;8.658;2022-11-11T11:35:42;102008.69;;;8.97;100.00
54854;BME280;40747;49.480;8.658;2022-11-11T11:38:11;101998.97;;;8.74;100.00
54854;BME280;40747;49.480;8.658;2022-11-11T11:40:48;102011.22;;;8.77;100.00
54854;BME280;40747;49.480;8.658;2022-11-11T11:43:34;102014.72;;;8.76;100.00
54854;BME280;40747;49.480;8.658;2022-11-11T11:51:36;101991.97;;;8.76;100.00
54854;BME280;40747;49.480;8.658;2022-11-11T11:54:16;101990.22;;;8.74;100.00
54854;BME280;40747;49.480;8.658;2022-11-11T11:56:51;101989.31;;;8.72;100.00
54854;BME280;40747;49.480;8.658;2022-11-11T12:04:57;101988.25;;;8.34;100.00
54854;BME280;40747;49.480;8.658;2022-11-11T12:07:38;101993.50;;;8.35;100.00
54854;BME280;40747;49.480;8.658;2022-11-11T12:13:23;101991.91;;;8.65;100.00
54854;BME280;40747;49.480;8.658;2022-11-11T12:18:47;102005.19;;;9.01;100.00
54854;BME280;40747;49.480;8.658;2022-11-11T12:21:17;102003.47;;;9.11;100.00
54854;BME280;40747;49.480;8.658;2022-11-11T12:40:21;102006.88;;;8.79;100.00
54854;BME280;40747;49.480;8.658;2022-11-11T12:45:27;102007.75;;;8.89;100.00
54854;BME280;40747;49.480;8.658;2022-11-11T12:48:04;102004.25;;;8.91;100.00
54854;BME280;40747;49.480;8.658;2022-11-11T12:50:45;102000.78;;;8.91;100.00
54854;BME280;40747;49.480;8.658;2022-11-11T12:58:46;101995.63;;;9.94;100.00
54854;BME280;40747;49.480;8.658;2022-11-11T13:01:40;102001.72;;;10.16;100.00
54854;BME280;40747;49.480;8.658;2022-11-11T13:07:16;102003.38;;;10.61;100.00
54854;BME280;40747;49.480;8.658;2022-11-11T13:12:43;102012.22;;;10.44;100.00
54854;BME280;40747;49.480;8.658;2022-11-11T13:15:14;102002.50;;;10.57;100.00
54854;BME280;40747;49.480;8.658;2022-11-11T13:17:40;102007.78;;;10.51;100.00
54854;BME280;40747;49.480;8.658;2022-11-11T13:20:17;102004.25;;;10.60;100.00
54854;BME280;40747;49.480;8.658;2022-11-11T13:22:47;102001.63;;;10.61;100.00
54854;BME280;40747;49.480;8.658;2022-11-11T13:25:25;102002.47;;;10.70;100.00
54854;BME280;40747;49.480;8.658;2022-11-11T13:28:06;102002.41;;;10.84;100.00
54854;BME280;40747;49.480;8.658;2022-11-11T13:30:56;102004.22;;;10.68;100.00
54854;BME280;40747;49.480;8.658;2022-11-11T13:33:33;102003.38;;;10.65;100.00
54854;BME280;40747;49.480;8.658;2022-11-11T13:36:01;101999.84;;;10.70;100.00
54854;BME280;40747;49.480;8.658;2022-11-11T13:38:34;102001.63;;;10.60;100.00
54854;BME280;40747;49.480;8.658;2022-11-11T13:41:05;102003.31;;;10.76;100.00
54854;BME280;40747;49.480;8.658;2022-11-11T13:43:41;102002.41;;;10.85;100.00
54854;BME280;40747;49.480;8.658;2022-11-11T13:46:38;102001.50;;;10.91;100.00
54854;BME280;40747;49.480;8.658;2022-11-11T13:49:07;102002.38;;;10.87;100.00
54854;BME280;40747;49.480;8.658;2022-11-11T13:51:39;101996.19;;;10.98;100.00
54854;BME280;40747;49.480;8.658;2022-11-11T13:59:51;101999.81;;;10.73;100.00
54854;BME280;40747;49.480;8.658;2022-11-11T14:12:45;101993.63;;;10.80;100.00
54854;BME280;40747;49.480;8.658;2022-11-11T14:20:51;101998.63;;;11.29;100.00
54854;BME280;40747;49.480;8.658;2022-11-11T14:26:14;101990.66;;;11.34;100.00
54854;BME280;40747;49.480;8.658;2022-11-11T14:28:29;102002.91;;;11.47;100.00
54854;BME280;40747;49.480;8.658;2022-11-11T14:31:23;102005.72;;;11.20;100.00
54854;BME280;40747;49.480;8.658;2022-11-11T14:37:21;102000.72;;;10.69;100.00
54854;BME280;40747;49.480;8.658;2022-11-11T14:39:52;102003.25;;;10.95;100.00
54854;BME280;40747;49.480;8.658;2022-11-11T14:45:00;101992.56;;;11.13;100.00
54854;BME280;40747;49.480;8.658;2022-11-11T14:47:34;101993.69;;;10.69;100.00
54854;BME280;40747;49.480;8.658;2022-11-11T14:50:01;101993.78;;;10.49;100.00
54854;BME280;40747;49.480;8.658;2022-11-11T14:52:39;102001.72;;;10.07;100.00
54854;BME280;40747;49.480;8.658;2022-11-11T15:00:24;101995.53;;;10.41;100.00